Terminal Aerodrome Forecast
Issued by NWS Sterling, VA

Current Version | Previous Version | Text Only | Print | Product List | Glossary Off
Versions: 1 2 3 4 5 6 7 8 9 10 11 12 13 14 15 16 17 18 19

000
FTUS41 KLWX 291800 AAA
TAFMRB
TAF AMD
KMRB 291816Z 2918/3018 16011KT P6SM -FZRASNPL BKN025 OVC050
     FM292100 17012G16KT 3SM -SNPL SCT025 OVC050
     FM300000 17009KT P6SM SCT025 BKN050
     FM300500 24006KT P6SM BKN050
     FM300900 30011KT P6SM BKN050
     FM301300 31013G23KT P6SM BKN050
     FM301600 31018G32KT P6SM BKN050=

USA.gov is the U.S. government's official web portal to all federal, state and local government web resources and services.